Terminal Aerodrome Forecast
Issued by NWS Corpus Christi, TX

Home | Current Version | Previous Version | Text Only | Print | Product List | Glossary On
Versions: 1 2 3 4 5 6 7 8 9 10 11 12 13 14 15 16 17
000
FTUS44 KCRP 300529
TAFVCT
TAF
KVCT 300529Z 3006/0106 17009KT 5SM BR OVC012
     FM300900 16005KT 4SM BR OVC008
      TEMPO 3010/3014 2SM TSRA BKN008CB OVC025
     FM301600 12006KT P6SM VCTS BKN025CB
      TEMPO 3016/3020 VRB15G30KT 5SM TSRA OVC020CB
     FM302100 12012KT P6SM BKN035
     FM010300 10006KT 5SM BR BKN012=

USA.gov is the U.S. government's official web portal to all federal, state and local government web resources and services.